الصفحة الرئيسية
METAR-TAF:

METAR-TAF

مطار :

لونغياربيين, النرويج

دائرة عرض: 78-15N, خط طول: 015-28E, ارتفاع: 2 متر

مراقبة الطقس الحالي

تاريخ ووقت الإصدار 28 دقيقة قبل الساعة 21:50UTC
ريح 6 عقدة من الشرق/الجنوب الشرقي
درجة الحرارة -3°درجة مئوية
الرطوبة 86%
ضغط 1000 hPa
الرؤية 10 كم أو أكثر
غيوم قليلة على ارتفاع 2500 قدم

METAR: ENSB 172150Z 11006KT 9999 FEW025 M03/M05 Q1000 RMK WIND 1400FT 11008KT

زمن: 00:18 (22:18 UTC)

توقعات

التوقعات صالحة من17 الساعة 18 UTC إلى 18 الساعة 18 UTC
ريح 9 عقدة من الشرق/الجنوب الشرقي
الرؤية 10 كم أو أكثر
غيوم متفرقة على ارتفاع 2000 قدم

TAF: ENSB 1718/1818 12009KT 9999 SCT020

أرصاد الطقس والتوقعات من أكثر من 4000 مطار (تقارير الطقس للمطار METAR والتنبؤ بالطقس بالمطارTAF).

المحطات المتاحة هي النقط الصفراء والحمراء على الخريطة.

حرك المؤشر فوق النقطة لمعرفة اسم المحطة.

ثم انقر لمعرفة أرصاد وتوقعات الطقس.

لتغيير الخارطة: اضغط على الأزرار الخضراء مع رمز الصليب الأسود للتكبير. على الزر الأخضر مع شرطة للتصغير، أو على الأسهم الخضراء للخرائط المجاورة.


METAR-TAF: